sensor_id;sensor_type;location;lat;lon;timestamp;temperature;humidity
21635;DHT22;10979;48.306;9.830;2023-03-01T00:02:19;-0.70;99.90
21635;DHT22;10979;48.306;9.830;2023-03-01T00:04:45;-0.70;99.90
21635;DHT22;10979;48.306;9.830;2023-03-01T00:07:10;-0.70;99.90
21635;DHT22;10979;48.306;9.830;2023-03-01T00:09:36;-0.80;99.90
21635;DHT22;10979;48.306;9.830;2023-03-01T00:12:03;-0.80;99.90
21635;DHT22;10979;48.306;9.830;2023-03-01T00:14:28;-0.80;99.90
21635;DHT22;10979;48.306;9.830;2023-03-01T00:16:54;-0.80;99.90
21635;DHT22;10979;48.306;9.830;2023-03-01T00:19:20;-0.70;99.90
21635;DHT22;10979;48.306;9.830;2023-03-01T00:21:47;-0.80;99.90
21635;DHT22;10979;48.306;9.830;2023-03-01T00:24:13;-0.70;99.90
21635;DHT22;10979;48.306;9.830;2023-03-01T00:26:39;-0.70;99.90
21635;DHT22;10979;48.306;9.830;2023-03-01T00:29:05;-0.80;99.90
21635;DHT22;10979;48.306;9.830;2023-03-01T00:31:32;-0.80;99.90
21635;DHT22;10979;48.306;9.830;2023-03-01T00:34:00;-0.80;99.90
21635;DHT22;10979;48.306;9.830;2023-03-01T00:36:30;-0.70;99.90
21635;DHT22;10979;48.306;9.830;2023-03-01T00:38:56;-0.70;99.90
21635;DHT22;10979;48.306;9.830;2023-03-01T00:41:22;-0.70;99.90
21635;DHT22;10979;48.306;9.830;2023-03-01T00:43:49;-0.70;99.90
21635;DHT22;10979;48.306;9.830;2023-03-01T00:46:20;-0.70;99.90
21635;DHT22;10979;48.306;9.830;2023-03-01T00:48:46;-0.60;99.90
21635;DHT22;10979;48.306;9.830;2023-03-01T00:51:16;-0.60;99.90
21635;DHT22;10979;48.306;9.830;2023-03-01T00:53:42;-0.60;99.90
21635;DHT22;10979;48.306;9.830;2023-03-01T00:56:13;-0.60;99.90
21635;DHT22;10979;48.306;9.830;2023-03-01T00:58:39;-0.60;99.90
21635;DHT22;10979;48.306;9.830;2023-03-01T01:01:14;-0.50;99.90
21635;DHT22;10979;48.306;9.830;2023-03-01T01:03:47;-0.50;99.90
21635;DHT22;10979;48.306;9.830;2023-03-01T01:06:37;-0.50;99.90
21635;DHT22;10979;48.306;9.830;2023-03-01T01:09:05;-0.50;99.90
21635;DHT22;10979;48.306;9.830;2023-03-01T01:11:31;-0.50;99.90
21635;DHT22;10979;48.306;9.830;2023-03-01T01:13:58;-0.40;99.90
21635;DHT22;10979;48.306;9.830;2023-03-01T01:16:26;-0.40;99.90
21635;DHT22;10979;48.306;9.830;2023-03-01T01:18:53;-0.40;99.90
21635;DHT22;10979;48.306;9.830;2023-03-01T01:21:21;-0.40;99.90
21635;DHT22;10979;48.306;9.830;2023-03-01T01:23:48;-0.40;99.90
21635;DHT22;10979;48.306;9.830;2023-03-01T01:26:25;-0.40;99.90
21635;DHT22;10979;48.306;9.830;2023-03-01T01:28:52;-0.40;99.90
21635;DHT22;10979;48.306;9.830;2023-03-01T01:31:18;-0.40;99.90
21635;DHT22;10979;48.306;9.830;2023-03-01T01:33:44;-0.40;99.90
21635;DHT22;10979;48.306;9.830;2023-03-01T01:36:11;-0.40;99.90
21635;DHT22;10979;48.306;9.830;2023-03-01T01:38:37;-0.40;99.90
21635;DHT22;10979;48.306;9.830;2023-03-01T01:41:03;-0.40;99.90
21635;DHT22;10979;48.306;9.830;2023-03-01T01:43:38;-0.40;99.90
21635;DHT22;10979;48.306;9.830;2023-03-01T01:46:05;-0.40;99.90
21635;DHT22;10979;48.306;9.830;2023-03-01T01:48:41;-0.40;99.90
21635;DHT22;10979;48.306;9.830;2023-03-01T01:51:13;-0.30;99.90
21635;DHT22;10979;48.306;9.830;2023-03-01T01:53:39;-0.30;99.90
21635;DHT22;10979;48.306;9.830;2023-03-01T01:56:07;-0.40;99.90
21635;DHT22;10979;48.306;9.830;2023-03-01T01:58:34;-0.40;99.90
21635;DHT22;10979;48.306;9.830;2023-03-01T02:01:00;-0.30;99.90
21635;DHT22;10979;48.306;9.830;2023-03-01T02:03:31;-0.30;99.90
21635;DHT22;10979;48.306;9.830;2023-03-01T02:06:19;-0.30;99.90
21635;DHT22;10979;48.306;9.830;2023-03-01T02:08:48;-0.30;99.90
21635;DHT22;10979;48.306;9.830;2023-03-01T02:11:15;-0.30;99.90
21635;DHT22;10979;48.306;9.830;2023-03-01T02:13:41;-0.30;99.90
21635;DHT22;10979;48.306;9.830;2023-03-01T02:16:11;-0.30;99.90
21635;DHT22;10979;48.306;9.830;2023-03-01T02:18:39;-0.30;99.90
21635;DHT22;10979;48.306;9.830;2023-03-01T02:26:56;-0.30;99.90
21635;DHT22;10979;48.306;9.830;2023-03-01T02:29:25;-0.30;99.90
21635;DHT22;10979;48.306;9.830;2023-03-01T02:31:52;-0.30;99.90
21635;DHT22;10979;48.306;9.830;2023-03-01T02:34:23;-0.30;99.90
21635;DHT22;10979;48.306;9.830;2023-03-01T02:36:54;-0.30;99.90
21635;DHT22;10979;48.306;9.830;2023-03-01T02:39:34;-0.30;99.90
21635;DHT22;10979;48.306;9.830;2023-03-01T02:42:02;-0.30;99.90
21635;DHT22;10979;48.306;9.830;2023-03-01T02:44:29;-0.30;99.90
21635;DHT22;10979;48.306;9.830;2023-03-01T02:46:56;-0.30;99.90
21635;DHT22;10979;48.306;9.830;2023-03-01T02:49:27;-0.30;99.90
21635;DHT22;10979;48.306;9.830;2023-03-01T02:52:15;-0.30;99.90
21635;DHT22;10979;48.306;9.830;2023-03-01T02:54:47;-0.30;99.90
21635;DHT22;10979;48.306;9.830;2023-03-01T02:57:14;-0.30;99.90
21635;DHT22;10979;48.306;9.830;2023-03-01T02:59:40;-0.30;99.90
21635;DHT22;10979;48.306;9.830;2023-03-01T03:02:23;-0.30;99.90
21635;DHT22;10979;48.306;9.830;2023-03-01T03:05:09;-0.30;99.90
21635;DHT22;10979;48.306;9.830;2023-03-01T03:07:37;-0.30;99.90
21635;DHT22;10979;48.306;9.830;2023-03-01T03:10:05;-0.30;99.90
21635;DHT22;10979;48.306;9.830;2023-03-01T03:12:31;-0.30;99.90
21635;DHT22;10979;48.306;9.830;2023-03-01T03:14:57;-0.30;99.90
21635;DHT22;10979;48.306;9.830;2023-03-01T03:17:22;-0.20;99.90
21635;DHT22;10979;48.306;9.830;2023-03-01T03:19:48;-0.30;99.90
21635;DHT22;10979;48.306;9.830;2023-03-01T03:22:14;-0.20;99.90
21635;DHT22;10979;48.306;9.830;2023-03-01T03:24:40;-0.20;99.90
21635;DHT22;10979;48.306;9.830;2023-03-01T03:27:06;-0.20;99.90
21635;DHT22;10979;48.306;9.830;2023-03-01T03:29:32;-0.20;99.90
21635;DHT22;10979;48.306;9.830;2023-03-01T03:31:58;-0.20;99.90
21635;DHT22;10979;48.306;9.830;2023-03-01T03:34:23;-0.20;99.90
21635;DHT22;10979;48.306;9.830;2023-03-01T03:36:56;-0.20;99.90
21635;DHT22;10979;48.306;9.830;2023-03-01T03:39:28;-0.20;99.90
21635;DHT22;10979;48.306;9.830;2023-03-01T03:41:54;-0.20;99.90
21635;DHT22;10979;48.306;9.830;2023-03-01T03:44:20;-0.20;99.90
21635;DHT22;10979;48.306;9.830;2023-03-01T03:46:46;-0.20;99.90
21635;DHT22;10979;48.306;9.830;2023-03-01T03:49:11;-0.20;99.90
21635;DHT22;10979;48.306;9.830;2023-03-01T03:51:37;-0.20;99.90
21635;DHT22;10979;48.306;9.830;2023-03-01T03:54:02;-0.20;99.90
21635;DHT22;10979;48.306;9.830;2023-03-01T03:56:28;-0.30;99.90
21635;DHT22;10979;48.306;9.830;2023-03-01T03:58:54;-0.30;99.90
21635;DHT22;10979;48.306;9.830;2023-03-01T04:01:20;-0.30;99.90
21635;DHT22;10979;48.306;9.830;2023-03-01T04:03:45;-0.30;99.90
21635;DHT22;10979;48.306;9.830;2023-03-01T04:06:13;-0.30;99.90
21635;DHT22;10979;48.306;9.830;2023-03-01T04:08:38;-0.30;99.90
21635;DHT22;10979;48.306;9.830;2023-03-01T04:11:04;-0.30;99.90
21635;DHT22;10979;48.306;9.830;2023-03-01T04:13:50;-0.30;99.90
21635;DHT22;10979;48.306;9.830;2023-03-01T04:16:16;-0.30;99.90
21635;DHT22;10979;48.306;9.830;2023-03-01T04:18:42;-0.30;99.90
21635;DHT22;10979;48.306;9.830;2023-03-01T04:21:08;-0.30;99.90
21635;DHT22;10979;48.306;9.830;2023-03-01T04:23:34;-0.30;99.90
21635;DHT22;10979;48.306;9.830;2023-03-01T04:26:00;-0.30;99.90
21635;DHT22;10979;48.306;9.830;2023-03-01T04:28:28;-0.30;99.90
21635;DHT22;10979;48.306;9.830;2023-03-01T04:30:55;-0.30;99.90
21635;DHT22;10979;48.306;9.830;2023-03-01T04:33:22;-0.30;99.90
21635;DHT22;10979;48.306;9.830;2023-03-01T04:35:48;-0.30;99.90
21635;DHT22;10979;48.306;9.830;2023-03-01T04:38:17;-0.30;99.90
21635;DHT22;10979;48.306;9.830;2023-03-01T04:40:43;-0.30;99.90
21635;DHT22;10979;48.306;9.830;2023-03-01T04:43:10;-0.30;99.90
21635;DHT22;10979;48.306;9.830;2023-03-01T04:45:36;-0.40;99.90
21635;DHT22;10979;48.306;9.830;2023-03-01T04:48:02;-0.40;99.90
21635;DHT22;10979;48.306;9.830;2023-03-01T04:50:29;-0.40;99.90
21635;DHT22;10979;48.306;9.830;2023-03-01T04:52:55;-0.40;99.90
21635;DHT22;10979;48.306;9.830;2023-03-01T04:55:24;-0.30;99.90
21635;DHT22;10979;48.306;9.830;2023-03-01T04:57:51;-0.40;99.90
21635;DHT22;10979;48.306;9.830;2023-03-01T05:00:16;-0.40;99.90
21635;DHT22;10979;48.306;9.830;2023-03-01T05:02:57;-0.30;99.90
21635;DHT22;10979;48.306;9.830;2023-03-01T05:05:31;-0.40;99.90
21635;DHT22;10979;48.306;9.830;2023-03-01T05:08:00;-0.40;99.90
21635;DHT22;10979;48.306;9.830;2023-03-01T05:10:28;-0.40;99.90
21635;DHT22;10979;48.306;9.830;2023-03-01T05:12:57;-0.40;99.90
21635;DHT22;10979;48.306;9.830;2023-03-01T05:15:24;-0.40;99.90
21635;DHT22;10979;48.306;9.830;2023-03-01T05:17:54;-0.40;99.90
21635;DHT22;10979;48.306;9.830;2023-03-01T05:20:20;-0.40;99.90
21635;DHT22;10979;48.306;9.830;2023-03-01T05:22:50;-0.40;99.90
21635;DHT22;10979;48.306;9.830;2023-03-01T05:25:16;-0.40;99.90
21635;DHT22;10979;48.306;9.830;2023-03-01T05:27:42;-0.40;99.90
21635;DHT22;10979;48.306;9.830;2023-03-01T05:30:08;-0.40;99.90
21635;DHT22;10979;48.306;9.830;2023-03-01T05:32:41;-0.40;99.90
21635;DHT22;10979;48.306;9.830;2023-03-01T05:35:08;-0.40;99.90
21635;DHT22;10979;48.306;9.830;2023-03-01T05:37:34;-0.40;99.90
21635;DHT22;10979;48.306;9.830;2023-03-01T05:40:01;-0.40;99.90
21635;DHT22;10979;48.306;9.830;2023-03-01T05:42:26;-0.40;99.90
21635;DHT22;10979;48.306;9.830;2023-03-01T05:44:52;-0.40;99.90
21635;DHT22;10979;48.306;9.830;2023-03-01T05:47:17;-0.40;99.90
21635;DHT22;10979;48.306;9.830;2023-03-01T05:49:43;-0.40;99.90
21635;DHT22;10979;48.306;9.830;2023-03-01T05:52:08;-0.40;99.90
21635;DHT22;10979;48.306;9.830;2023-03-01T05:54:34;-0.40;99.90
21635;DHT22;10979;48.306;9.830;2023-03-01T05:56:59;-0.40;99.90
21635;DHT22;10979;48.306;9.830;2023-03-01T05:59:25;-0.40;99.90
21635;DHT22;10979;48.306;9.830;2023-03-01T06:01:50;-0.50;99.90
21635;DHT22;10979;48.306;9.830;2023-03-01T06:04:16;-0.40;99.90
21635;DHT22;10979;48.306;9.830;2023-03-01T06:06:42;-0.40;99.90
21635;DHT22;10979;48.306;9.830;2023-03-01T06:09:07;-0.50;99.90
21635;DHT22;10979;48.306;9.830;2023-03-01T06:11:36;-0.50;99.90
21635;DHT22;10979;48.306;9.830;2023-03-01T06:14:02;-0.50;99.90
21635;DHT22;10979;48.306;9.830;2023-03-01T06:16:28;-0.50;99.90
21635;DHT22;10979;48.306;9.830;2023-03-01T06:18:53;-0.40;99.90
21635;DHT22;10979;48.306;9.830;2023-03-01T06:21:19;-0.50;99.90
21635;DHT22;10979;48.306;9.830;2023-03-01T06:23:45;-0.50;99.90
21635;DHT22;10979;48.306;9.830;2023-03-01T06:26:10;-0.50;99.90
21635;DHT22;10979;48.306;9.830;2023-03-01T06:28:36;-0.50;99.90
21635;DHT22;10979;48.306;9.830;2023-03-01T06:31:02;-0.50;99.90
21635;DHT22;10979;48.306;9.830;2023-03-01T06:33:27;-0.50;99.90
21635;DHT22;10979;48.306;9.830;2023-03-01T06:35:56;-0.50;99.90
21635;DHT22;10979;48.306;9.830;2023-03-01T06:38:23;-0.50;99.90
21635;DHT22;10979;48.306;9.830;2023-03-01T06:40:53;-0.50;99.90
21635;DHT22;10979;48.306;9.830;2023-03-01T06:43:20;-0.50;99.90
21635;DHT22;10979;48.306;9.830;2023-03-01T06:45:46;-0.50;99.90
21635;DHT22;10979;48.306;9.830;2023-03-01T06:48:11;-0.50;99.90
21635;DHT22;10979;48.306;9.830;2023-03-01T06:50:37;-0.50;99.90
21635;DHT22;10979;48.306;9.830;2023-03-01T06:53:03;-0.50;99.90
21635;DHT22;10979;48.306;9.830;2023-03-01T06:55:28;-0.50;99.90
21635;DHT22;10979;48.306;9.830;2023-03-01T06:57:55;-0.50;99.90
21635;DHT22;10979;48.306;9.830;2023-03-01T07:00:22;-0.50;99.90
21635;DHT22;10979;48.306;9.830;2023-03-01T07:02:48;-0.50;99.90
21635;DHT22;10979;48.306;9.830;2023-03-01T07:05:13;-0.50;99.90
21635;DHT22;10979;48.306;9.830;2023-03-01T07:07:39;-0.50;99.90
21635;DHT22;10979;48.306;9.830;2023-03-01T07:10:05;-0.40;99.90
21635;DHT22;10979;48.306;9.830;2023-03-01T07:12:30;-0.40;99.90
21635;DHT22;10979;48.306;9.830;2023-03-01T07:14:56;-0.40;99.90
21635;DHT22;10979;48.306;9.830;2023-03-01T07:17:21;-0.50;99.90
21635;DHT22;10979;48.306;9.830;2023-03-01T07:19:47;-0.50;99.90
21635;DHT22;10979;48.306;9.830;2023-03-01T07:22:13;-0.50;99.90
21635;DHT22;10979;48.306;9.830;2023-03-01T07:24:38;-0.50;99.90
21635;DHT22;10979;48.306;9.830;2023-03-01T07:27:04;-0.40;99.90
21635;DHT22;10979;48.306;9.830;2023-03-01T07:29:29;-0.50;99.90
21635;DHT22;10979;48.306;9.830;2023-03-01T07:31:55;-0.50;99.90
21635;DHT22;10979;48.306;9.830;2023-03-01T07:34:20;-0.40;99.90
21635;DHT22;10979;48.306;9.830;2023-03-01T07:36:46;-0.40;99.90
21635;DHT22;10979;48.306;9.830;2023-03-01T07:39:12;-0.40;99.90
21635;DHT22;10979;48.306;9.830;2023-03-01T07:41:38;-0.40;99.90
21635;DHT22;10979;48.306;9.830;2023-03-01T07:44:04;-0.40;99.90
21635;DHT22;10979;48.306;9.830;2023-03-01T07:46:29;-0.40;99.90
21635;DHT22;10979;48.306;9.830;2023-03-01T07:48:55;-0.40;99.90
21635;DHT22;10979;48.306;9.830;2023-03-01T07:51:21;-0.40;99.90
21635;DHT22;10979;48.306;9.830;2023-03-01T07:53:47;-0.40;99.90
21635;DHT22;10979;48.306;9.830;2023-03-01T07:56:14;-0.50;99.90
21635;DHT22;10979;48.306;9.830;2023-03-01T07:58:42;-0.50;99.90
21635;DHT22;10979;48.306;9.830;2023-03-01T08:01:14;-0.30;99.90
21635;DHT22;10979;48.306;9.830;2023-03-01T08:03:39;-0.30;99.90
21635;DHT22;10979;48.306;9.830;2023-03-01T08:06:08;-0.30;99.90
21635;DHT22;10979;48.306;9.830;2023-03-01T08:08:34;-0.30;99.90
21635;DHT22;10979;48.306;9.830;2023-03-01T08:11:01;-0.20;99.90
21635;DHT22;10979;48.306;9.830;2023-03-01T08:13:28;-0.20;99.90
21635;DHT22;10979;48.306;9.830;2023-03-01T08:15:53;-0.30;99.90
21635;DHT22;10979;48.306;9.830;2023-03-01T08:18:20;-0.30;99.90
21635;DHT22;10979;48.306;9.830;2023-03-01T08:20:46;-0.20;99.90
21635;DHT22;10979;48.306;9.830;2023-03-01T08:23:11;-0.20;99.90
21635;DHT22;10979;48.306;9.830;2023-03-01T08:25:37;-0.10;99.90
21635;DHT22;10979;48.306;9.830;2023-03-01T08:28:04;-0.20;99.90
21635;DHT22;10979;48.306;9.830;2023-03-01T08:30:29;-0.10;99.90
21635;DHT22;10979;48.306;9.830;2023-03-01T08:32:55;0.00;99.90
21635;DHT22;10979;48.306;9.830;2023-03-01T08:35:21;-0.10;99.90
21635;DHT22;10979;48.306;9.830;2023-03-01T08:37:47;0.00;99.90
21635;DHT22;10979;48.306;9.830;2023-03-01T08:40:13;0.10;99.90
21635;DHT22;10979;48.306;9.830;2023-03-01T08:42:39;-0.10;99.90
21635;DHT22;10979;48.306;9.830;2023-03-01T08:45:06;0.30;99.90
21635;DHT22;10979;48.306;9.830;2023-03-01T08:47:32;0.20;99.90
21635;DHT22;10979;48.306;9.830;2023-03-01T08:50:02;0.10;99.90
21635;DHT22;10979;48.306;9.830;2023-03-01T08:52:28;0.10;99.90
21635;DHT22;10979;48.306;9.830;2023-03-01T08:54:55;0.30;99.90
21635;DHT22;10979;48.306;9.830;2023-03-01T08:57:21;0.30;99.90
21635;DHT22;10979;48.306;9.830;2023-03-01T08:59:47;0.30;99.90
21635;DHT22;10979;48.306;9.830;2023-03-01T09:02:15;0.30;99.90
21635;DHT22;10979;48.306;9.830;2023-03-01T09:04:41;0.40;99.90
21635;DHT22;10979;48.306;9.830;2023-03-01T09:07:07;0.60;99.90
21635;DHT22;10979;48.306;9.830;2023-03-01T09:09:33;0.60;99.90
21635;DHT22;10979;48.306;9.830;2023-03-01T09:11:58;0.60;99.90
21635;DHT22;10979;48.306;9.830;2023-03-01T09:14:24;0.50;99.90
21635;DHT22;10979;48.306;9.830;2023-03-01T09:16:50;0.50;99.90
21635;DHT22;10979;48.306;9.830;2023-03-01T09:19:16;0.70;99.90
21635;DHT22;10979;48.306;9.830;2023-03-01T09:21:42;0.60;99.90
21635;DHT22;10979;48.306;9.830;2023-03-01T09:24:19;0.70;99.90
21635;DHT22;10979;48.306;9.830;2023-03-01T09:26:45;0.80;99.90
21635;DHT22;10979;48.306;9.830;2023-03-01T09:29:14;0.90;99.90
21635;DHT22;10979;48.306;9.830;2023-03-01T09:31:40;0.90;99.90
21635;DHT22;10979;48.306;9.830;2023-03-01T09:34:07;0.90;99.90
21635;DHT22;10979;48.306;9.830;2023-03-01T09:36:33;0.50;99.90
21635;DHT22;10979;48.306;9.830;2023-03-01T09:38:59;0.60;99.90
21635;DHT22;10979;48.306;9.830;2023-03-01T09:46:44;0.80;99.90
21635;DHT22;10979;48.306;9.830;2023-03-01T09:49:28;0.80;99.90
21635;DHT22;10979;48.306;9.830;2023-03-01T09:52:09;0.80;99.90
21635;DHT22;10979;48.306;9.830;2023-03-01T09:54:37;0.80;99.90
21635;DHT22;10979;48.306;9.830;2023-03-01T09:57:08;0.70;99.90
21635;DHT22;10979;48.306;9.830;2023-03-01T10:02:24;0.80;99.90
21635;DHT22;10979;48.306;9.830;2023-03-01T10:04:55;0.80;99.90
21635;DHT22;10979;48.306;9.830;2023-03-01T10:10:43;1.00;99.90
21635;DHT22;10979;48.306;9.830;2023-03-01T10:16:23;1.50;99.90
21635;DHT22;10979;48.306;9.830;2023-03-01T10:18:59;1.40;99.90
21635;DHT22;10979;48.306;9.830;2023-03-01T10:21:26;1.50;99.90
21635;DHT22;10979;48.306;9.830;2023-03-01T10:23:53;1.50;99.90
21635;DHT22;10979;48.306;9.830;2023-03-01T10:26:41;1.60;99.90
21635;DHT22;10979;48.306;9.830;2023-03-01T10:29:14;1.40;99.90
21635;DHT22;10979;48.306;9.830;2023-03-01T10:34:32;1.50;99.90
21635;DHT22;10979;48.306;9.830;2023-03-01T10:37:01;1.40;99.90
21635;DHT22;10979;48.306;9.830;2023-03-01T10:39:33;1.20;99.90
21635;DHT22;10979;48.306;9.830;2023-03-01T10:42:02;1.40;99.90
21635;DHT22;10979;48.306;9.830;2023-03-01T10:50:01;1.70;99.90
21635;DHT22;10979;48.306;9.830;2023-03-01T10:52:36;1.80;99.90
21635;DHT22;10979;48.306;9.830;2023-03-01T10:57:46;1.80;99.90
21635;DHT22;10979;48.306;9.830;2023-03-01T11:02:48;2.10;99.90
21635;DHT22;10979;48.306;9.830;2023-03-01T11:10:23;2.20;99.90
21635;DHT22;10979;48.306;9.830;2023-03-01T11:12:51;2.50;99.90
21635;DHT22;10979;48.306;9.830;2023-03-01T11:15:25;2.70;99.90
21635;DHT22;10979;48.306;9.830;2023-03-01T11:17:52;2.80;99.90
21635;DHT22;10979;48.306;9.830;2023-03-01T11:20:31;3.30;99.90
21635;DHT22;10979;48.306;9.830;2023-03-01T11:23:24;3.00;99.90
21635;DHT22;10979;48.306;9.830;2023-03-01T11:25:59;2.60;99.90
21635;DHT22;10979;48.306;9.830;2023-03-01T11:28:42;2.40;99.90
21635;DHT22;10979;48.306;9.830;2023-03-01T11:31:11;2.20;99.90
21635;DHT22;10979;48.306;9.830;2023-03-01T11:36:32;2.20;99.90
21635;DHT22;10979;48.306;9.830;2023-03-01T11:39:05;2.30;99.90
21635;DHT22;10979;48.306;9.830;2023-03-01T11:41:39;2.30;99.90
21635;DHT22;10979;48.306;9.830;2023-03-01T11:44:16;2.10;99.90
21635;DHT22;10979;48.306;9.830;2023-03-01T11:47:15;2.10;99.90
21635;DHT22;10979;48.306;9.830;2023-03-01T12:03:27;3.10;99.90
21635;DHT22;10979;48.306;9.830;2023-03-01T12:06:09;3.20;99.90
21635;DHT22;10979;48.306;9.830;2023-03-01T12:08:49;3.20;99.90
21635;DHT22;10979;48.306;9.830;2023-03-01T12:14:29;3.70;99.90
21635;DHT22;10979;48.306;9.830;2023-03-01T12:19:52;3.40;99.90
21635;DHT22;10979;48.306;9.830;2023-03-01T12:22:30;3.60;99.90
21635;DHT22;10979;48.306;9.830;2023-03-01T12:25:22;3.80;99.90
21635;DHT22;10979;48.306;9.830;2023-03-01T12:30:52;4.10;99.90
21635;DHT22;10979;48.306;9.830;2023-03-01T12:49:57;4.10;99.90
21635;DHT22;10979;48.306;9.830;2023-03-01T12:52:46;4.00;99.90
21635;DHT22;10979;48.306;9.830;2023-03-01T12:55:26;4.20;99.90
21635;DHT22;10979;48.306;9.830;2023-03-01T13:03:46;4.20;99.90
21635;DHT22;10979;48.306;9.830;2023-03-01T13:09:07;4.70;99.90
21635;DHT22;10979;48.306;9.830;2023-03-01T13:11:35;4.40;99.90
21635;DHT22;10979;48.306;9.830;2023-03-01T13:16:50;4.60;99.90
21635;DHT22;10979;48.306;9.830;2023-03-01T13:19:24;4.50;99.90
21635;DHT22;10979;48.306;9.830;2023-03-01T13:21:52;4.60;99.90
21635;DHT22;10979;48.306;9.830;2023-03-01T13:24:28;4.70;99.90
21635;DHT22;10979;48.306;9.830;2023-03-01T13:29:47;4.80;99.90
21635;DHT22;10979;48.306;9.830;2023-03-01T13:34:47;4.80;99.90
21635;DHT22;10979;48.306;9.830;2023-03-01T13:37:31;5.10;99.90
21635;DHT22;10979;48.306;9.830;2023-03-01T13:39:59;4.90;99.90
21635;DHT22;10979;48.306;9.830;2023-03-01T13:42:38;4.60;99.90
21635;DHT22;10979;48.306;9.830;2023-03-01T13:45:22;4.50;99.90
21635;DHT22;10979;48.306;9.830;2023-03-01T13:48:08;4.50;99.90
21635;DHT22;10979;48.306;9.830;2023-03-01T13:50:38;4.80;99.90
21635;DHT22;10979;48.306;9.830;2023-03-01T13:53:12;4.70;99.90
21635;DHT22;10979;48.306;9.830;2023-03-01T13:55:50;5.00;99.90
21635;DHT22;10979;48.306;9.830;2023-03-01T13:58:26;4.80;99.90
21635;DHT22;10979;48.306;9.830;2023-03-01T14:01:01;5.10;99.90
21635;DHT22;10979;48.306;9.830;2023-03-01T14:03:28;5.00;99.90
21635;DHT22;10979;48.306;9.830;2023-03-01T14:06:08;5.20;99.90
21635;DHT22;10979;48.306;9.830;2023-03-01T14:08:37;4.80;99.90
21635;DHT22;10979;48.306;9.830;2023-03-01T14:19:10;5.10;99.90
21635;DHT22;10979;48.306;9.830;2023-03-01T14:21:39;5.00;99.90
21635;DHT22;10979;48.306;9.830;2023-03-01T14:24:05;5.20;99.90
21635;DHT22;10979;48.306;9.830;2023-03-01T14:26:32;4.90;99.90
21635;DHT22;10979;48.306;9.830;2023-03-01T14:29:00;4.70;99.90
21635;DHT22;10979;48.306;9.830;2023-03-01T14:31:34;4.80;99.90
21635;DHT22;10979;48.306;9.830;2023-03-01T14:34:00;5.00;99.90
21635;DHT22;10979;48.306;9.830;2023-03-01T14:36:28;5.10;99.90
21635;DHT22;10979;48.306;9.830;2023-03-01T14:38:54;5.30;99.90
21635;DHT22;10979;48.306;9.830;2023-03-01T14:41:23;5.30;99.90
21635;DHT22;10979;48.306;9.830;2023-03-01T14:44:14;5.40;99.90
21635;DHT22;10979;48.306;9.830;2023-03-01T14:46:42;5.10;99.90
21635;DHT22;10979;48.306;9.830;2023-03-01T14:49:17;5.30;99.90
21635;DHT22;10979;48.306;9.830;2023-03-01T14:52:02;5.30;99.90
21635;DHT22;10979;48.306;9.830;2023-03-01T14:54:48;5.00;99.90
21635;DHT22;10979;48.306;9.830;2023-03-01T14:57:17;4.90;99.90
21635;DHT22;10979;48.306;9.830;2023-03-01T14:59:44;4.80;99.90
21635;DHT22;10979;48.306;9.830;2023-03-01T15:02:16;5.00;99.90
21635;DHT22;10979;48.306;9.830;2023-03-01T15:04:46;5.00;99.90
21635;DHT22;10979;48.306;9.830;2023-03-01T15:07:13;5.10;99.90
21635;DHT22;10979;48.306;9.830;2023-03-01T15:09:40;5.00;99.90
21635;DHT22;10979;48.306;9.830;2023-03-01T15:14:53;5.10;99.90
21635;DHT22;10979;48.306;9.830;2023-03-01T15:19:54;5.10;99.90
21635;DHT22;10979;48.306;9.830;2023-03-01T15:22:20;5.00;99.90
21635;DHT22;10979;48.306;9.830;2023-03-01T15:24:50;5.00;99.90
21635;DHT22;10979;48.306;9.830;2023-03-01T15:27:22;5.00;99.90
21635;DHT22;10979;48.306;9.830;2023-03-01T15:29:58;5.00;99.90
21635;DHT22;10979;48.306;9.830;2023-03-01T15:32:31;5.00;99.90
21635;DHT22;10979;48.306;9.830;2023-03-01T15:34:58;5.00;99.90
21635;DHT22;10979;48.306;9.830;2023-03-01T15:37:44;5.00;99.90
21635;DHT22;10979;48.306;9.830;2023-03-01T15:40:28;4.90;99.90
21635;DHT22;10979;48.306;9.830;2023-03-01T15:42:57;4.90;99.90
21635;DHT22;10979;48.306;9.830;2023-03-01T15:45:25;4.90;99.90
21635;DHT22;10979;48.306;9.830;2023-03-01T15:47:55;4.90;99.90
21635;DHT22;10979;48.306;9.830;2023-03-01T15:50:36;4.80;99.90
21635;DHT22;10979;48.306;9.830;2023-03-01T15:53:11;4.80;99.90
21635;DHT22;10979;48.306;9.830;2023-03-01T15:55:37;4.70;99.90
21635;DHT22;10979;48.306;9.830;2023-03-01T16:00:30;4.70;99.90
21635;DHT22;10979;48.306;9.830;2023-03-01T16:02:56;4.70;99.90
21635;DHT22;10979;48.306;9.830;2023-03-01T16:05:25;4.70;99.90
21635;DHT22;10979;48.306;9.830;2023-03-01T16:07:51;4.60;99.90
21635;DHT22;10979;48.306;9.830;2023-03-01T16:10:17;4.50;99.90
21635;DHT22;10979;48.306;9.830;2023-03-01T16:12:44;4.40;99.90
21635;DHT22;10979;48.306;9.830;2023-03-01T16:15:31;4.40;99.90
21635;DHT22;10979;48.306;9.830;2023-03-01T16:17:57;4.30;99.90
21635;DHT22;10979;48.306;9.830;2023-03-01T16:20:24;4.20;99.90
21635;DHT22;10979;48.306;9.830;2023-03-01T16:22:50;4.20;99.90
21635;DHT22;10979;48.306;9.830;2023-03-01T16:25:18;4.10;99.90
21635;DHT22;10979;48.306;9.830;2023-03-01T16:27:45;4.20;99.90
21635;DHT22;10979;48.306;9.830;2023-03-01T16:30:12;4.00;99.90
21635;DHT22;10979;48.306;9.830;2023-03-01T16:32:39;4.10;99.90
21635;DHT22;10979;48.306;9.830;2023-03-01T16:35:06;4.10;99.90
21635;DHT22;10979;48.306;9.830;2023-03-01T16:37:33;3.90;99.90
21635;DHT22;10979;48.306;9.830;2023-03-01T16:39:59;3.90;99.90
21635;DHT22;10979;48.306;9.830;2023-03-01T16:42:25;3.90;99.90
21635;DHT22;10979;48.306;9.830;2023-03-01T16:44:55;4.10;99.90
21635;DHT22;10979;48.306;9.830;2023-03-01T16:47:21;4.10;99.90
21635;DHT22;10979;48.306;9.830;2023-03-01T16:49:46;4.10;99.90
21635;DHT22;10979;48.306;9.830;2023-03-01T16:52:12;4.20;99.90
21635;DHT22;10979;48.306;9.830;2023-03-01T16:54:38;4.40;99.90
21635;DHT22;10979;48.306;9.830;2023-03-01T16:57:04;4.40;99.90
21635;DHT22;10979;48.306;9.830;2023-03-01T16:59:30;4.30;99.90
21635;DHT22;10979;48.306;9.830;2023-03-01T17:01:55;4.30;99.90
21635;DHT22;10979;48.306;9.830;2023-03-01T17:04:21;4.20;99.90
21635;DHT22;10979;48.306;9.830;2023-03-01T17:06:46;4.20;99.90
21635;DHT22;10979;48.306;9.830;2023-03-01T17:09:13;4.00;99.90
21635;DHT22;10979;48.306;9.830;2023-03-01T17:11:39;4.10;99.90
21635;DHT22;10979;48.306;9.830;2023-03-01T17:14:05;3.90;99.90
21635;DHT22;10979;48.306;9.830;2023-03-01T17:16:31;4.00;99.90
21635;DHT22;10979;48.306;9.830;2023-03-01T17:18:57;3.80;99.90
21635;DHT22;10979;48.306;9.830;2023-03-01T17:21:23;3.90;99.90
21635;DHT22;10979;48.306;9.830;2023-03-01T17:23:48;4.00;99.90
21635;DHT22;10979;48.306;9.830;2023-03-01T17:26:15;4.00;99.90
21635;DHT22;10979;48.306;9.830;2023-03-01T17:28:41;3.90;99.90
21635;DHT22;10979;48.306;9.830;2023-03-01T17:31:08;3.90;99.90
21635;DHT22;10979;48.306;9.830;2023-03-01T17:33:34;3.90;99.90
21635;DHT22;10979;48.306;9.830;2023-03-01T17:36:00;4.00;99.90
21635;DHT22;10979;48.306;9.830;2023-03-01T17:38:26;3.90;99.90
21635;DHT22;10979;48.306;9.830;2023-03-01T17:40:52;3.80;99.90
21635;DHT22;10979;48.306;9.830;2023-03-01T17:43:17;3.90;99.90